Spotsylvania, VA (22553)

1:02 PM EST on February 28, 2015 (GMT -0500)
Holly lane | Change Station
CLOSE
Current Station
Personal Weather Station
Location: Spotsylvania, VA
Elevation: 335 ft
Nearby Weather Stations

Elev 335 ft 38.17 °N, 77.67 °W | Updated 5 minutes ago

Clear
Clear
30.6 °F
Feels Like 31 °F
N
1.7
Wind Variable Wind from NW

Today
High -- | Low -- °F
--% Chance of Precip.
Yesterday
High -- | Low -- °F
Precip. -- in
6:44 AM 6:02 PM
Waxing Gibbous, 79% visible
Pressure 30.82 in
Visibility 10.0 miles
Clouds Clear
Windchill 31 °F
Dew Point 2 °F
Humidity 29%
Rainfall 0.00 in
Snow Depth Not available.
UV 6 out of 12
Pollen .60 out of 12
Air Quality Not available.
Flu Activity Not available.
METAR KEZF 281755Z AUTO 00000KT 10SM CLR M01/M16 A3082 RMK AO2 T10121164 11011 21067

More Conditions Fewer Conditions

Pressure 30.82 in
Visibility 10.0 miles
Clouds Clear
Windchill 31 °F
Dew Point 2 °F
Humidity 29%
Rainfall 0.00 in
Snow Depth Not available.
UV 6 out of 12
Pollen .60 out of 12
Air Quality Not available.
Flu Activity Not available.
METAR KEZF 281755Z AUTO 00000KT 10SM CLR M01/M16 A3082 RMK AO2 T10121164 11011 21067

More Conditions Fewer Conditions

10-Day Weather Forecast

Almanac

Astronomy

Feb. 28, 2015 Rise Set
Actual Time
Civil Twilight
Nautical Twilight
Astronomical Twilight
Moon
Length of Visible Light
Length of Day
Tomorrow will be .
, % of the Moon is Illuminated

Today's Extremes

State Highs State Lows

Community

WunderPhotos

Upload Photos

1,801,103 photos uploaded!

WunderBlogs® & News

Nearby

Air Quality

  Air Quality AQ Index Pollutant
Not available.

Snow Depth

Station Depth Elevation

Earthquake Activity

City Distance Mag. Time & Date
Minimum magnitude displayed is 2.5.

Coastal Water Temperatures

Place Temperature

Nearby Weather Stations